createdAt,value
2023-05-25T04:15:21.957Z,15.29
2023-05-25T04:18:24.857Z,15.52
2023-05-25T04:21:30.374Z,15.36
2023-05-25T04:24:35.197Z,15.79
2023-05-25T04:27:38.109Z,16.40
2023-05-25T04:30:42.304Z,16.81
2023-05-25T04:33:45.082Z,17.19
2023-05-25T04:36:48.163Z,17.64
2023-05-25T04:39:51.485Z,18.00
2023-05-25T04:43:00.024Z,18.43
2023-05-25T04:46:08.020Z,18.77
2023-05-25T04:49:11.033Z,19.13
2023-05-25T04:52:13.969Z,19.48
2023-05-25T04:55:24.958Z,19.72
2023-05-25T04:58:29.583Z,19.41
2023-05-25T05:01:34.579Z,19.58
2023-05-25T05:04:38.609Z,19.49
2023-05-25T05:07:41.283Z,19.45
2023-05-25T05:10:44.779Z,19.01
2023-05-25T05:13:47.469Z,18.33
2023-05-25T05:16:51.482Z,17.91
2023-05-25T05:19:54.100Z,17.36
2023-05-25T05:22:56.621Z,17.17
2023-05-25T05:25:59.119Z,17.01
2023-05-25T05:29:01.611Z,17.11
2023-05-25T05:32:05.906Z,17.28
2023-05-25T05:35:09.000Z,17.44
2023-05-25T05:38:11.717Z,17.58
2023-05-25T05:41:14.453Z,17.81
2023-05-25T05:44:17.113Z,17.85
2023-05-25T05:47:21.311Z,18.17
2023-05-25T05:50:23.953Z,18.25
2023-05-25T05:53:26.544Z,18.44
2023-05-25T05:56:29.056Z,18.56
2023-05-25T05:59:31.598Z,18.05
2023-05-25T06:02:35.680Z,17.50
2023-05-25T06:05:38.295Z,17.50
2023-05-25T06:08:41.603Z,17.78
2023-05-25T06:11:44.112Z,17.40
2023-05-25T06:14:49.227Z,17.41
2023-05-25T06:17:53.364Z,17.49
2023-05-25T06:20:55.886Z,17.48
2023-05-25T06:23:58.663Z,16.96
2023-05-25T06:27:03.243Z,16.98
2023-05-25T06:30:06.919Z,17.15
2023-05-25T06:33:10.771Z,18.53
2023-05-25T06:36:15.675Z,19.45
2023-05-25T06:39:18.637Z,19.04
2023-05-25T06:42:21.148Z,19.28
2023-05-25T06:45:23.667Z,20.00
2023-05-25T06:48:27.802Z,20.56
2023-05-25T06:51:31.433Z,21.03
2023-05-25T06:54:34.021Z,20.88
2023-05-25T06:57:36.672Z,20.05
2023-05-25T07:00:39.197Z,20.06
2023-05-25T07:03:43.263Z,21.24
2023-05-25T07:06:46.125Z,21.87
2023-05-25T07:09:48.676Z,22.05
2023-05-25T07:12:51.185Z,22.39
2023-05-25T07:15:53.714Z,22.21
2023-05-25T07:18:59.423Z,21.04
2023-05-25T07:22:02.766Z,21.18
2023-05-25T07:25:06.149Z,20.52
2023-05-25T07:28:09.172Z,20.04
2023-05-25T07:31:12.058Z,20.39
2023-05-25T07:34:16.178Z,21.24
2023-05-25T07:37:18.707Z,22.00
2023-05-25T07:40:21.320Z,21.86
2023-05-25T07:43:23.854Z,21.99
2023-05-25T07:46:27.066Z,21.43
2023-05-25T07:49:30.917Z,20.81
2023-05-25T07:52:33.552Z,21.76
2023-05-25T07:55:36.103Z,22.01
2023-05-25T07:58:38.598Z,23.29
2023-05-25T08:01:41.200Z,21.83
2023-05-25T08:04:45.467Z,22.12
2023-05-25T08:07:48.195Z,20.38
2023-05-25T08:10:50.735Z,22.23
2023-05-25T08:13:53.432Z,23.39
2023-05-25T08:16:56.106Z,23.47
2023-05-25T08:20:00.100Z,22.59
2023-05-25T08:23:02.770Z,22.47
2023-05-25T08:26:20.439Z,22.62
2023-05-25T08:29:29.024Z,21.14
2023-05-25T08:32:31.567Z,19.31
2023-05-25T08:35:39.261Z,19.12
2023-05-25T08:38:41.853Z,19.06
2023-05-25T08:41:45.523Z,19.10
2023-05-25T08:44:48.077Z,18.78
2023-05-25T08:47:55.192Z,19.19
2023-05-25T08:51:01.572Z,19.87
2023-05-25T08:54:08.920Z,20.35
2023-05-25T08:57:16.089Z,20.92
2023-05-25T09:00:22.843Z,19.38
2023-05-25T09:03:25.907Z,19.33
2023-05-25T09:06:31.610Z,20.33
2023-05-25T09:09:37.042Z,18.84
2023-05-25T09:12:40.138Z,19.46
2023-05-25T09:15:42.757Z,22.23
2023-05-25T09:18:45.501Z,23.87
2023-05-25T09:21:51.326Z,20.06
2023-05-25T09:24:55.708Z,18.28
2023-05-25T09:28:01.300Z,17.71
2023-05-25T09:31:07.672Z,17.63
2023-05-25T09:34:12.926Z,17.76
2023-05-25T09:37:19.461Z,21.07
2023-05-25T09:40:22.403Z,22.58
2023-05-25T09:43:39.689Z,22.76
2023-05-25T09:46:45.720Z,23.48
2023-05-25T09:49:50.534Z,24.10
2023-05-25T09:52:59.241Z,22.71
2023-05-25T09:56:03.927Z,21.17
2023-05-25T09:59:07.456Z,21.85
2023-05-25T10:02:10.178Z,24.08
2023-05-25T10:05:12.721Z,22.91
2023-05-25T10:08:18.773Z,23.69
2023-05-25T10:11:22.624Z,23.58
2023-05-25T10:14:29.467Z,24.98
2023-05-25T10:17:33.664Z,26.26
2023-05-25T10:20:37.383Z,24.60
2023-05-25T10:23:48.090Z,25.23
2023-05-25T10:26:55.336Z,22.73
2023-05-25T10:29:59.127Z,21.22
2023-05-25T10:33:03.598Z,21.61
2023-05-25T10:36:11.208Z,23.35
2023-05-25T10:39:17.130Z,22.17
2023-05-25T10:42:19.975Z,20.53
2023-05-25T10:45:23.018Z,19.96
2023-05-25T10:48:36.022Z,20.55
2023-05-25T10:51:39.538Z,22.08
2023-05-25T10:54:44.418Z,21.79
2023-05-25T10:57:47.307Z,21.48
2023-05-25T11:00:59.082Z,20.99
2023-05-25T11:04:17.180Z,20.96
2023-05-25T11:07:22.949Z,23.10
2023-05-25T11:10:54.826Z,23.64
2023-05-25T11:13:57.350Z,24.13
2023-05-25T11:17:08.005Z,21.59
2023-05-25T11:20:22.941Z,19.66
2023-05-25T11:23:26.029Z,19.71
2023-05-25T11:26:31.111Z,20.86
2023-05-25T11:29:36.177Z,22.48
2023-05-25T11:32:46.538Z,23.80
2023-05-25T11:35:50.182Z,23.91
2023-05-25T11:39:04.959Z,23.82
2023-05-25T11:42:16.676Z,24.85
2023-05-25T11:45:19.221Z,25.85
2023-05-25T11:48:21.773Z,23.87
2023-05-25T11:51:25.873Z,21.05
2023-05-25T11:54:29.931Z,20.29
2023-05-25T11:57:33.879Z,20.41
2023-05-25T12:00:36.383Z,20.12
2023-05-25T12:03:38.970Z,20.77
2023-05-25T12:06:41.797Z,21.07
2023-05-25T12:09:44.364Z,20.50
2023-05-25T12:12:49.389Z,20.19
2023-05-25T12:15:52.446Z,19.80
2023-05-25T12:18:55.905Z,19.96
2023-05-25T12:21:58.637Z,20.18
2023-05-25T12:25:01.608Z,20.16
2023-05-25T12:28:16.100Z,19.48
2023-05-25T12:31:22.943Z,19.32
2023-05-25T12:34:28.382Z,19.26
2023-05-25T12:37:31.165Z,19.38
2023-05-25T12:40:33.685Z,19.43
2023-05-25T12:43:43.722Z,19.37
2023-05-25T12:46:46.345Z,19.35
2023-05-25T12:49:51.840Z,19.58
2023-05-25T12:53:01.882Z,20.05
2023-05-25T12:56:05.697Z,20.30
2023-05-25T12:59:18.878Z,20.84
2023-05-25T13:02:21.427Z,21.72
2023-05-25T13:05:26.244Z,20.44
2023-05-25T13:08:29.019Z,20.42
2023-05-25T13:11:31.533Z,19.53
2023-05-25T13:14:36.030Z,19.21
2023-05-25T13:17:38.757Z,19.67
2023-05-25T13:20:41.708Z,20.06
2023-05-25T13:23:44.428Z,20.17
2023-05-25T13:26:49.233Z,20.18
2023-05-25T13:29:54.595Z,20.07
2023-05-25T13:32:57.146Z,20.06
2023-05-25T13:36:07.814Z,20.04
2023-05-25T13:39:13.365Z,20.11
2023-05-25T13:42:15.894Z,20.02
2023-05-25T13:45:19.902Z,20.35
2023-05-25T13:48:22.608Z,21.42
2023-05-25T13:51:25.167Z,21.73
2023-05-25T13:54:27.662Z,21.47
2023-05-25T13:57:30.121Z,20.88
2023-05-25T14:00:34.392Z,19.97
2023-05-25T14:03:38.544Z,20.00
2023-05-25T14:06:41.207Z,20.20
2023-05-25T14:09:43.789Z,20.02
2023-05-25T14:12:46.318Z,19.59
2023-05-25T14:15:50.163Z,19.58
2023-05-25T14:18:52.905Z,19.73
2023-05-25T14:25:00.805Z,20.18
2023-05-25T14:28:03.418Z,20.15
2023-05-25T14:31:07.315Z,19.87
2023-05-25T14:34:09.858Z,19.35
2023-05-25T14:37:12.914Z,19.29
2023-05-25T14:40:15.415Z,20.48
2023-05-25T14:43:17.921Z,20.56
2023-05-25T14:46:21.770Z,20.13
2023-05-25T14:49:25.065Z,19.92
2023-05-25T14:52:27.605Z,19.84
2023-05-25T14:55:30.123Z,19.85
2023-05-25T14:58:32.897Z,19.92
2023-05-25T15:01:36.850Z,20.98
2023-05-25T15:04:39.463Z,21.99
2023-05-25T15:07:42.387Z,22.65
2023-05-25T15:10:44.985Z,22.50
2023-05-25T15:13:47.590Z,22.54
2023-05-25T15:16:51.516Z,22.86
2023-05-25T15:19:54.187Z,22.07
2023-05-25T15:22:56.769Z,20.98
2023-05-25T15:26:03.741Z,20.40
2023-05-25T15:29:06.238Z,19.97
2023-05-25T15:32:13.217Z,19.74
2023-05-25T15:35:15.920Z,19.51
2023-05-25T15:38:18.563Z,19.43
2023-05-25T15:41:21.088Z,19.20
2023-05-25T15:44:23.581Z,19.00
2023-05-25T15:47:27.419Z,19.00
2023-05-25T15:50:29.923Z,18.88
2023-05-25T15:53:33.831Z,18.66
2023-05-25T15:56:36.627Z,18.58
2023-05-25T15:59:39.083Z,18.50
2023-05-25T16:02:42.981Z,18.49
2023-05-25T16:05:45.777Z,18.96
2023-05-25T16:08:48.462Z,19.44
2023-05-25T16:11:51.431Z,19.90
2023-05-25T16:14:54.018Z,20.10
2023-05-25T16:17:57.834Z,19.93
2023-05-25T16:21:00.750Z,20.10
2023-05-25T16:24:03.555Z,20.10
2023-05-25T16:27:06.948Z,19.21
2023-05-25T16:30:13.093Z,18.69
2023-05-25T16:33:17.269Z,18.29
2023-05-25T16:36:19.790Z,18.26
2023-05-25T16:39:22.299Z,19.06
2023-05-25T16:42:26.283Z,19.43
2023-05-25T16:45:29.018Z,18.96
2023-05-25T16:48:32.876Z,18.65
2023-05-25T16:51:35.440Z,18.49
2023-05-25T16:54:37.921Z,18.28
2023-05-25T16:57:40.456Z,18.29
2023-05-25T17:00:43.332Z,18.64
2023-05-25T17:03:47.278Z,19.08
2023-05-25T17:06:49.873Z,19.13
2023-05-25T17:09:52.384Z,18.94
2023-05-25T17:12:55.102Z,18.84
2023-05-25T17:15:57.855Z,18.78
2023-05-25T17:19:01.663Z,18.64
2023-05-25T17:22:04.186Z,18.66
2023-05-25T17:25:08.868Z,18.59
2023-05-25T17:28:11.520Z,18.18
2023-05-25T17:31:14.122Z,17.88
2023-05-25T17:34:18.185Z,17.77
2023-05-25T17:37:21.200Z,17.91
2023-05-25T17:40:24.023Z,17.89
2023-05-25T17:43:26.528Z,17.97
2023-05-25T17:46:29.298Z,18.08
2023-05-25T17:49:33.428Z,18.20
2023-05-25T17:52:36.078Z,18.23
2023-05-25T17:55:38.550Z,18.34
2023-05-25T17:58:47.143Z,18.29
2023-05-25T18:01:49.720Z,17.85
2023-05-25T18:04:53.525Z,17.81
2023-05-25T18:07:56.034Z,17.63
2023-05-25T18:10:59.011Z,17.55
2023-05-25T18:14:01.541Z,17.40
2023-05-25T18:17:04.715Z,17.21
2023-05-25T18:20:10.216Z,16.99
2023-05-25T18:23:13.298Z,16.78
2023-05-25T18:26:15.824Z,16.65
2023-05-25T18:29:18.447Z,16.44
2023-05-25T18:32:20.961Z,16.09
2023-05-25T18:35:24.941Z,15.73
2023-05-25T18:38:27.412Z,15.47
2023-05-25T18:41:30.083Z,15.21
2023-05-25T18:44:32.739Z,15.07
2023-05-25T18:47:35.512Z,14.91
2023-05-25T18:50:41.846Z,14.70
2023-05-25T18:53:44.695Z,14.59
2023-05-25T18:56:47.258Z,14.24
2023-05-25T18:59:49.793Z,13.85
2023-05-25T19:02:52.363Z,13.51
2023-05-25T19:05:56.277Z,13.33
2023-05-25T19:08:58.766Z,13.15
2023-05-25T19:12:01.390Z,13.00
2023-05-25T19:15:05.039Z,12.94
2023-05-25T19:18:07.572Z,12.94
2023-05-25T19:21:11.473Z,12.84
